Airfield :
LOGIN :

Register | Disclaimer

   EN    FR    IT 

 










Legend :    VFR   Marginal VFR   IFR   Intensive IFR   Very Intensive IFR
Visi :
Ceiling :
>= 8 km
>= 3000ft
5 to 8 km
1000 to 3000 ft
1500m to 5 km
500 to 1000 ft
800 to 1500m
200 to 500 ft
< 800m
< 200 ft
Symbols :   Thunderstorms  Fog  Heavy snow  Heavy precipitations  Wind > 20 kt
SIGMETs :     Misc.  Thunderstorms  Icing  Turbulence  Mountain Waves  Volcanic Ashes







- Airport Elevation : 357 ft
- IATA code : TUF
- Download approach charts


LFOT - Tours

CURRENT METAR :
  • 112230Z AUTO 10009KT 8000 OVC005 04/03 Q1022 TEMPO 0800 FG VV///

EXPIRED METARs :
  • 112200Z AUTO 10007KT 7000 OVC005 04/03 Q1022 TEMPO 0800 FG VV///
  • 112130Z AUTO 10009KT 7000 OVC005 03/03 Q1023 TEMPO 0800 FG VV///
  • 112100Z AUTO 10007KT 6000 OVC003 03/03 Q1023 TEMPO 0800 FG VV///
  • 112030Z AUTO 11008KT 5000 BR VV/// 03/03 Q1023 TEMPO 0800 FG
  • 112000Z AUTO 09009KT 3200 BR OVC002 03/03 Q1023 TEMPO 0800 FG VV///

TAF AMD TAF LFOT
Valid from the 11 at 18:00 until the 12 at 18:00 UTC


111706Z 1118/1218 10010KT 9999 OVC007
TEMPO 1118/1208 2000 BR OVC002
PROB40
TEMPO 1118/1206 0800 FG VV///
BECMG 1210/1212 9999 NSW SCT010 BKN045
No reported NOTAMs for that airfield.



MET'MAP, your aeronautical weather chart ! - Copyright ORBIFLY December 2007 - Disclaimer

ORBIFLY MET'MAP TEAM :

Programming & Development : Alexandra Zaïnal
Concept & Development : Baudouin d'Aumeries
Co-Development & Prog : Marc-Olivier Méhu
Technical & hardware support : Manuel Goepfert

Contact : metmap@orbifly.com




SOURCES & CREDITS :

   NOAA